Terminal Aerodrome Forecast
Issued by NWS

Home | Current Version | Previous Version | Text Only | Print | Product List | Glossary On
Versions: 1 2 3 4 5 6 7 8 9 10 11 12 13 14
860
FTPA31 PHFO 221131
TAFHOG
TAF
PHOG 221131Z 2212/2312 05012G22KT P6SM VCSH FEW025 BKN040
     FM221500 05010G22KT P6SM VCSH SCT030 BKN050
     FM221900 06022G38KT P6SM FEW030 SCT050
     FM230500 06015G24KT P6SM VCSH FEW025 BKN050
      AMD LTD TO VIS AND WIND TIL 221600=

USA.gov is the U.S. government's official web portal to all federal, state and local government web resources and services.